sensor_id;sensor_type;location;lat;lon;timestamp;pressure;altitude;pressure_sealevel;temperature;humidity
64739;BME280;51175;51.186;0.276;2023-12-14T00:00:20;101158.59;;;6.24;87.00
64739;BME280;51175;51.186;0.276;2023-12-14T00:00:53;101158.00;;;6.22;87.07
64739;BME280;51175;51.186;0.276;2023-12-14T00:01:23;101164.84;;;6.23;87.13
64739;BME280;51175;51.186;0.276;2023-12-14T00:02:05;101160.84;;;6.20;87.09
64739;BME280;51175;51.186;0.276;2023-12-14T00:02:43;101165.88;;;6.22;87.31
64739;BME280;51175;51.186;0.276;2023-12-14T00:03:14;101166.44;;;6.24;87.29
64739;BME280;51175;51.186;0.276;2023-12-14T00:03:51;101166.66;;;6.23;87.17
64739;BME280;51175;51.186;0.276;2023-12-14T00:04:22;101169.88;;;6.25;87.41
64739;BME280;51175;51.186;0.276;2023-12-14T00:04:56;101162.22;;;6.23;87.46
64739;BME280;51175;51.186;0.276;2023-12-14T00:05:26;101169.88;;;6.25;87.44
64739;BME280;51175;51.186;0.276;2023-12-14T00:06:30;101165.28;;;6.20;87.49
64739;BME280;51175;51.186;0.276;2023-12-14T00:07:01;101167.69;;;6.21;87.52
64739;BME280;51175;51.186;0.276;2023-12-14T00:07:31;101166.66;;;6.23;87.49
64739;BME280;51175;51.186;0.276;2023-12-14T00:08:40;101168.94;;;6.19;87.45
64739;BME280;51175;51.186;0.276;2023-12-14T00:09:10;101172.94;;;6.21;87.50
64739;BME280;51175;51.186;0.276;2023-12-14T00:09:48;101173.16;;;6.20;87.58
64739;BME280;51175;51.186;0.276;2023-12-14T00:10:18;101176.38;;;6.22;87.68
64739;BME280;51175;51.186;0.276;2023-12-14T00:10:51;101170.31;;;6.21;87.44
64739;BME280;51175;51.186;0.276;2023-12-14T00:11:21;101184.25;;;6.22;87.49
64739;BME280;51175;51.186;0.276;2023-12-14T00:11:51;101179.78;;;6.23;87.47
64739;BME280;51175;51.186;0.276;2023-12-14T00:12:22;101177.97;;;6.23;87.52
64739;BME280;51175;51.186;0.276;2023-12-14T00:12:58;101176.38;;;6.22;87.64
64739;BME280;51175;51.186;0.276;2023-12-14T00:13:29;101185.63;;;6.25;87.49
64739;BME280;51175;51.186;0.276;2023-12-14T00:13:59;101180.38;;;6.25;87.71
64739;BME280;51175;51.186;0.276;2023-12-14T00:14:30;101182.78;;;6.26;87.57
64739;BME280;51175;51.186;0.276;2023-12-14T00:15:04;101183.59;;;6.27;87.61
64739;BME280;51175;51.186;0.276;2023-12-14T00:15:34;101192.25;;;6.27;87.68
64739;BME280;51175;51.186;0.276;2023-12-14T00:16:08;101184.59;;;6.26;87.56
64739;BME280;51175;51.186;0.276;2023-12-14T00:16:38;101185.00;;;6.29;87.55
64739;BME280;51175;51.186;0.276;2023-12-14T00:17:09;101190.44;;;6.28;87.49
64739;BME280;51175;51.186;0.276;2023-12-14T00:17:40;101195.47;;;6.29;87.63
64739;BME280;51175;51.186;0.276;2023-12-14T00:18:16;101189.84;;;6.26;87.52
64739;BME280;51175;51.186;0.276;2023-12-14T00:18:49;101196.72;;;6.27;87.65
64739;BME280;51175;51.186;0.276;2023-12-14T00:19:19;101195.47;;;6.29;87.42
64739;BME280;51175;51.186;0.276;2023-12-14T00:19:50;101201.53;;;6.30;87.52
64739;BME280;51175;51.186;0.276;2023-12-14T00:20:20;101195.69;;;6.28;87.49
64739;BME280;51175;51.186;0.276;2023-12-14T00:20:51;101198.91;;;6.30;87.62
64739;BME280;51175;51.186;0.276;2023-12-14T00:21:22;101197.28;;;6.29;87.63
64739;BME280;51175;51.186;0.276;2023-12-14T00:21:54;101192.84;;;6.29;87.59
64739;BME280;51175;51.186;0.276;2023-12-14T00:22:25;101198.09;;;6.29;87.46
64739;BME280;51175;51.186;0.276;2023-12-14T00:22:58;101196.50;;;6.28;87.44
64739;BME280;51175;51.186;0.276;2023-12-14T00:23:28;101199.69;;;6.30;87.47
64739;BME280;51175;51.186;0.276;2023-12-14T00:23:59;101199.91;;;6.29;87.26
64739;BME280;51175;51.186;0.276;2023-12-14T00:24:29;101202.31;;;6.30;87.42
64739;BME280;51175;51.186;0.276;2023-12-14T00:25:01;101200.53;;;6.31;87.49
64739;BME280;51175;51.186;0.276;2023-12-14T00:25:33;101197.91;;;6.31;87.46
64739;BME280;51175;51.186;0.276;2023-12-14T00:26:09;101208.38;;;6.31;87.31
64739;BME280;51175;51.186;0.276;2023-12-14T00:26:40;101212.44;;;6.33;87.35
64739;BME280;51175;51.186;0.276;2023-12-14T00:27:18;101200.53;;;6.31;87.23
64739;BME280;51175;51.186;0.276;2023-12-14T00:27:49;101212.44;;;6.33;87.38
64739;BME280;51175;51.186;0.276;2023-12-14T00:28:20;101213.22;;;6.34;87.39
64739;BME280;51175;51.186;0.276;2023-12-14T00:28:53;101215.22;;;6.32;87.35
64739;BME280;51175;51.186;0.276;2023-12-14T00:29:24;101217.66;;;6.33;87.38
64739;BME280;51175;51.186;0.276;2023-12-14T00:29:57;101218.88;;;6.31;87.28
64739;BME280;51175;51.186;0.276;2023-12-14T00:30:27;101216.03;;;6.32;87.14
64739;BME280;51175;51.186;0.276;2023-12-14T00:30:59;101219.69;;;6.31;87.14
64739;BME280;51175;51.186;0.276;2023-12-14T00:31:29;101217.66;;;6.33;87.28
64739;BME280;51175;51.186;0.276;2023-12-14T00:31:59;101225.72;;;6.32;87.26
64739;BME280;51175;51.186;0.276;2023-12-14T00:32:30;101225.72;;;6.32;87.14
64739;BME280;51175;51.186;0.276;2023-12-14T00:33:01;101223.91;;;6.32;87.08
64739;BME280;51175;51.186;0.276;2023-12-14T00:33:32;101226.53;;;6.32;87.06
64739;BME280;51175;51.186;0.276;2023-12-14T00:34:03;101222.31;;;6.31;87.07
64739;BME280;51175;51.186;0.276;2023-12-14T00:34:33;101225.72;;;6.32;87.14
64739;BME280;51175;51.186;0.276;2023-12-14T00:35:07;101224.34;;;6.29;87.01
64739;BME280;51175;51.186;0.276;2023-12-14T00:35:38;101222.31;;;6.31;86.82
64739;BME280;51175;51.186;0.276;2023-12-14T00:36:08;101226.75;;;6.31;87.04
64739;BME280;51175;51.186;0.276;2023-12-14T00:36:39;101228.34;;;6.32;87.00
64739;BME280;51175;51.186;0.276;2023-12-14T00:37:16;101230.41;;;6.30;86.97
64739;BME280;51175;51.186;0.276;2023-12-14T00:37:46;101227.56;;;6.31;87.02
64739;BME280;51175;51.186;0.276;2023-12-14T00:38:18;101228.00;;;6.28;86.97
64739;BME280;51175;51.186;0.276;2023-12-14T00:38:48;101224.56;;;6.28;86.99
64739;BME280;51175;51.186;0.276;2023-12-14T00:39:19;101230.00;;;6.26;86.77
64739;BME280;51175;51.186;0.276;2023-12-14T00:39:51;101228.63;;;6.24;86.72
64739;BME280;51175;51.186;0.276;2023-12-14T00:40:22;101232.84;;;6.25;86.57
64739;BME280;51175;51.186;0.276;2023-12-14T00:40:59;101231.47;;;6.22;86.58
64739;BME280;51175;51.186;0.276;2023-12-14T00:41:29;101233.88;;;6.24;86.54
64739;BME280;51175;51.186;0.276;2023-12-14T00:42:01;101239.13;;;6.24;86.70
64739;BME280;51175;51.186;0.276;2023-12-14T00:42:31;101236.72;;;6.22;86.54
64739;BME280;51175;51.186;0.276;2023-12-14T00:43:02;101235.69;;;6.23;86.45
64739;BME280;51175;51.186;0.276;2023-12-14T00:43:33;101233.28;;;6.21;86.48
64739;BME280;51175;51.186;0.276;2023-12-14T00:44:03;101231.66;;;6.20;86.36
64739;BME280;51175;51.186;0.276;2023-12-14T00:44:34;101235.09;;;6.21;86.30
64739;BME280;51175;51.186;0.276;2023-12-14T00:45:05;101232.66;;;6.19;86.19
64739;BME280;51175;51.186;0.276;2023-12-14T00:45:36;101231.88;;;6.19;86.32
64739;BME280;51175;51.186;0.276;2023-12-14T00:46:13;101229.91;;;6.14;86.32
64739;BME280;51175;51.186;0.276;2023-12-14T00:46:44;101236.53;;;6.17;86.19
64739;BME280;51175;51.186;0.276;2023-12-14T00:47:16;101234.94;;;6.16;86.20
64739;BME280;51175;51.186;0.276;2023-12-14T00:47:46;101228.88;;;6.15;86.23
64739;BME280;51175;51.186;0.276;2023-12-14T00:48:18;101238.75;;;6.13;86.18
64739;BME280;51175;51.186;0.276;2023-12-14T00:48:48;101230.09;;;6.13;86.04
64739;BME280;51175;51.186;0.276;2023-12-14T00:49:32;101234.34;;;6.07;86.07
64739;BME280;51175;51.186;0.276;2023-12-14T00:50:04;101231.94;;;6.05;85.99
64739;BME280;51175;51.186;0.276;2023-12-14T00:50:35;101232.13;;;6.04;86.08
64739;BME280;51175;51.186;0.276;2023-12-14T00:51:06;101236.59;;;6.03;86.06
64739;BME280;51175;51.186;0.276;2023-12-14T00:51:37;101250.47;;;6.04;86.11
64739;BME280;51175;51.186;0.276;2023-12-14T00:52:18;101246.69;;;6.00;86.12
64739;BME280;51175;51.186;0.276;2023-12-14T00:52:49;101242.25;;;6.00;85.95
64739;BME280;51175;51.186;0.276;2023-12-14T00:53:21;101245.06;;;5.99;86.07
64739;BME280;51175;51.186;0.276;2023-12-14T00:53:52;101248.69;;;5.97;86.19
64739;BME280;51175;51.186;0.276;2023-12-14T00:54:41;101250.16;;;5.93;86.05
64739;BME280;51175;51.186;0.276;2023-12-14T00:55:15;101250.94;;;5.94;86.05
64739;BME280;51175;51.186;0.276;2023-12-14T00:55:45;101262.22;;;5.94;85.91
64739;BME280;51175;51.186;0.276;2023-12-14T00:56:32;101251.56;;;5.89;86.14
64739;BME280;51175;51.186;0.276;2023-12-14T00:57:04;101260.84;;;5.92;86.04
64739;BME280;51175;51.186;0.276;2023-12-14T00:57:34;101251.34;;;5.91;86.10
64739;BME280;51175;51.186;0.276;2023-12-14T00:58:06;101260.03;;;5.91;86.24
64739;BME280;51175;51.186;0.276;2023-12-14T00:58:36;101260.25;;;5.90;86.15
64739;BME280;51175;51.186;0.276;2023-12-14T00:59:08;101255.81;;;5.90;86.30
64739;BME280;51175;51.186;0.276;2023-12-14T00:59:38;101264.25;;;5.92;86.29
64739;BME280;51175;51.186;0.276;2023-12-14T01:00:11;101259.22;;;5.91;86.36
64739;BME280;51175;51.186;0.276;2023-12-14T01:00:41;101267.06;;;5.91;86.39
64739;BME280;51175;51.186;0.276;2023-12-14T01:01:12;101261.06;;;5.90;86.42
64739;BME280;51175;51.186;0.276;2023-12-14T01:01:42;101259.22;;;5.91;86.40
64739;BME280;51175;51.186;0.276;2023-12-14T01:02:13;101256.81;;;5.89;86.49
64739;BME280;51175;51.186;0.276;2023-12-14T01:02:43;101263.88;;;5.89;86.46
64739;BME280;51175;51.186;0.276;2023-12-14T01:03:15;101257.81;;;5.88;86.72
64739;BME280;51175;51.186;0.276;2023-12-14T01:03:45;101258.63;;;5.89;86.58
64739;BME280;51175;51.186;0.276;2023-12-14T01:04:16;101265.69;;;5.88;86.62
64739;BME280;51175;51.186;0.276;2023-12-14T01:04:47;101263.47;;;5.85;86.61
64739;BME280;51175;51.186;0.276;2023-12-14T01:05:17;101266.09;;;5.85;86.72
64739;BME280;51175;51.186;0.276;2023-12-14T01:05:48;101265.28;;;5.84;86.61
64739;BME280;51175;51.186;0.276;2023-12-14T01:06:19;101267.91;;;5.84;86.77
64739;BME280;51175;51.186;0.276;2023-12-14T01:06:49;101270.53;;;5.84;86.65
64739;BME280;51175;51.186;0.276;2023-12-14T01:07:20;101267.91;;;5.84;86.79
64739;BME280;51175;51.186;0.276;2023-12-14T01:07:51;101265.28;;;5.84;86.79
64739;BME280;51175;51.186;0.276;2023-12-14T01:08:22;101275.56;;;5.86;86.89
64739;BME280;51175;51.186;0.276;2023-12-14T01:08:53;101274.38;;;5.89;87.02
64739;BME280;51175;51.186;0.276;2023-12-14T01:09:24;101270.50;;;5.91;87.09
64739;BME280;51175;51.186;0.276;2023-12-14T01:09:54;101272.31;;;5.91;87.26
64739;BME280;51175;51.186;0.276;2023-12-14T01:10:25;101269.50;;;5.92;87.14
64739;BME280;51175;51.186;0.276;2023-12-14T01:10:55;101276.56;;;5.92;87.04
64739;BME280;51175;51.186;0.276;2023-12-14T01:11:28;101272.13;;;5.92;87.17
64739;BME280;51175;51.186;0.276;2023-12-14T01:11:58;101274.53;;;5.94;87.06
64739;BME280;51175;51.186;0.276;2023-12-14T01:12:29;101272.72;;;5.94;87.07
64739;BME280;51175;51.186;0.276;2023-12-14T01:13:00;101271.69;;;5.95;87.19
64739;BME280;51175;51.186;0.276;2023-12-14T01:13:30;101267.47;;;5.94;87.20
64739;BME280;51175;51.186;0.276;2023-12-14T01:14:01;101275.13;;;5.96;87.18
64739;BME280;51175;51.186;0.276;2023-12-14T01:14:31;101272.50;;;5.96;87.04
64739;BME280;51175;51.186;0.276;2023-12-14T01:15:02;101281.19;;;5.96;87.26
64739;BME280;51175;51.186;0.276;2023-12-14T01:15:34;101276.72;;;5.97;87.02
64739;BME280;51175;51.186;0.276;2023-12-14T01:16:04;101276.72;;;5.97;87.22
64739;BME280;51175;51.186;0.276;2023-12-14T01:16:35;101280.78;;;6.00;87.12
64739;BME280;51175;51.186;0.276;2023-12-14T01:17:05;101285.19;;;5.99;87.20
64739;BME280;51175;51.186;0.276;2023-12-14T01:17:36;101276.34;;;6.00;87.05
64739;BME280;51175;51.186;0.276;2023-12-14T01:18:07;101277.13;;;6.01;87.09
64739;BME280;51175;51.186;0.276;2023-12-14T01:18:39;101277.94;;;6.01;87.13
64739;BME280;51175;51.186;0.276;2023-12-14T01:19:09;101278.75;;;6.02;87.00
64739;BME280;51175;51.186;0.276;2023-12-14T01:19:40;101272.69;;;6.01;87.22
64739;BME280;51175;51.186;0.276;2023-12-14T01:20:11;101278.75;;;6.02;87.20
64739;BME280;51175;51.186;0.276;2023-12-14T01:20:43;101282.81;;;6.04;87.07
64739;BME280;51175;51.186;0.276;2023-12-14T01:21:13;101281.00;;;6.05;87.07
64739;BME280;51175;51.186;0.276;2023-12-14T01:21:44;101281.00;;;6.05;87.16
64739;BME280;51175;51.186;0.276;2023-12-14T01:22:14;101282.81;;;6.04;87.17
64739;BME280;51175;51.186;0.276;2023-12-14T01:22:49;101281.38;;;6.02;87.03
64739;BME280;51175;51.186;0.276;2023-12-14T01:23:19;101288.22;;;6.03;86.99
64739;BME280;51175;51.186;0.276;2023-12-14T01:23:50;101291.66;;;6.03;86.90
64739;BME280;51175;51.186;0.276;2023-12-14T01:24:21;101285.81;;;6.01;86.89
64739;BME280;51175;51.186;0.276;2023-12-14T01:24:52;101285.81;;;6.01;86.91
64739;BME280;51175;51.186;0.276;2023-12-14T01:25:23;101289.25;;;6.02;86.79
64739;BME280;51175;51.186;0.276;2023-12-14T01:25:53;101285.81;;;6.01;86.74
64739;BME280;51175;51.186;0.276;2023-12-14T01:26:24;101296.28;;;6.01;86.89
64739;BME280;51175;51.186;0.276;2023-12-14T01:26:55;101304.97;;;6.02;86.84
64739;BME280;51175;51.186;0.276;2023-12-14T01:27:26;101291.06;;;6.01;86.84
64739;BME280;51175;51.186;0.276;2023-12-14T01:27:57;101292.88;;;6.01;86.80
64739;BME280;51175;51.186;0.276;2023-12-14T01:28:28;101294.50;;;6.02;86.84
64739;BME280;51175;51.186;0.276;2023-12-14T01:28:59;101293.69;;;6.01;87.00
64739;BME280;51175;51.186;0.276;2023-12-14T01:29:29;101299.13;;;6.00;86.84
64739;BME280;51175;51.186;0.276;2023-12-14T01:30:00;101292.88;;;6.01;86.86
64739;BME280;51175;51.186;0.276;2023-12-14T01:30:31;101294.69;;;6.00;86.98
64739;BME280;51175;51.186;0.276;2023-12-14T01:31:01;101300.72;;;6.01;86.76
64739;BME280;51175;51.186;0.276;2023-12-14T01:31:31;101291.25;;;6.00;86.73
64739;BME280;51175;51.186;0.276;2023-12-14T01:32:02;101291.06;;;6.01;86.95
64739;BME280;51175;51.186;0.276;2023-12-14T01:32:32;101294.69;;;6.00;86.89
64739;BME280;51175;51.186;0.276;2023-12-14T01:33:03;101293.88;;;6.00;86.93
64739;BME280;51175;51.186;0.276;2023-12-14T01:33:33;101304.16;;;6.01;86.72
64739;BME280;51175;51.186;0.276;2023-12-14T01:34:04;101299.13;;;6.00;86.97
64739;BME280;51175;51.186;0.276;2023-12-14T01:34:34;101296.50;;;6.00;86.68
64739;BME280;51175;51.186;0.276;2023-12-14T01:35:05;101301.75;;;6.00;86.74
64739;BME280;51175;51.186;0.276;2023-12-14T01:35:36;101307.81;;;6.00;86.74
64739;BME280;51175;51.186;0.276;2023-12-14T01:36:06;101299.94;;;6.00;86.57
64739;BME280;51175;51.186;0.276;2023-12-14T01:36:37;101303.56;;;5.99;86.87
64739;BME280;51175;51.186;0.276;2023-12-14T01:37:08;101301.75;;;6.00;86.64
64739;BME280;51175;51.186;0.276;2023-12-14T01:37:42;101301.16;;;5.97;86.70
64739;BME280;51175;51.186;0.276;2023-12-14T01:38:12;101302.75;;;5.99;86.67
64739;BME280;51175;51.186;0.276;2023-12-14T01:38:45;101300.94;;;5.99;86.74
64739;BME280;51175;51.186;0.276;2023-12-14T01:39:15;101304.97;;;6.02;86.79
64739;BME280;51175;51.186;0.276;2023-12-14T01:39:46;101305.97;;;6.01;86.76
64739;BME280;51175;51.186;0.276;2023-12-14T01:40:19;101305.97;;;6.01;86.71
64739;BME280;51175;51.186;0.276;2023-12-14T01:40:50;101303.34;;;6.01;86.92
64739;BME280;51175;51.186;0.276;2023-12-14T01:41:21;101307.81;;;6.00;86.83
64739;BME280;51175;51.186;0.276;2023-12-14T01:41:51;101305.19;;;6.00;86.76
64739;BME280;51175;51.186;0.276;2023-12-14T01:42:22;101306.19;;;5.99;86.63
64739;BME280;51175;51.186;0.276;2023-12-14T01:42:53;101309.81;;;5.98;86.64
64739;BME280;51175;51.186;0.276;2023-12-14T01:43:23;101312.66;;;5.96;86.53
64739;BME280;51175;51.186;0.276;2023-12-14T01:43:54;101316.28;;;5.95;86.69
64739;BME280;51175;51.186;0.276;2023-12-14T01:44:25;101316.28;;;5.95;86.47
64739;BME280;51175;51.186;0.276;2023-12-14T01:44:56;101311.44;;;5.92;86.52
64739;BME280;51175;51.186;0.276;2023-12-14T01:45:27;101307.00;;;5.93;86.45
64739;BME280;51175;51.186;0.276;2023-12-14T01:45:58;101315.91;;;5.92;86.46
64739;BME280;51175;51.186;0.276;2023-12-14T01:46:28;101314.28;;;5.91;86.43
64739;BME280;51175;51.186;0.276;2023-12-14T01:47:00;101323.16;;;5.90;86.60
64739;BME280;51175;51.186;0.276;2023-12-14T01:47:30;101318.34;;;5.87;86.39
64739;BME280;51175;51.186;0.276;2023-12-14T01:48:01;101320.13;;;5.86;86.62
64739;BME280;51175;51.186;0.276;2023-12-14T01:48:31;101320.13;;;5.86;86.54
64739;BME280;51175;51.186;0.276;2023-12-14T01:49:02;101317.72;;;5.84;86.52
64739;BME280;51175;51.186;0.276;2023-12-14T01:49:32;101316.94;;;5.84;86.57
64739;BME280;51175;51.186;0.276;2023-12-14T01:50:03;101322.19;;;5.84;86.51
64739;BME280;51175;51.186;0.276;2023-12-14T01:50:34;101322.38;;;5.82;86.62
64739;BME280;51175;51.186;0.276;2023-12-14T01:51:04;101321.78;;;5.80;86.63
64739;BME280;51175;51.186;0.276;2023-12-14T01:51:35;101320.97;;;5.80;86.46
64739;BME280;51175;51.186;0.276;2023-12-14T01:52:09;101323.78;;;5.78;86.56
64739;BME280;51175;51.186;0.276;2023-12-14T01:52:39;101317.97;;;5.76;86.38
64739;BME280;51175;51.186;0.276;2023-12-14T01:53:10;101317.38;;;5.74;86.56
64739;BME280;51175;51.186;0.276;2023-12-14T01:53:40;101318.38;;;5.73;86.54
64739;BME280;51175;51.186;0.276;2023-12-14T01:54:11;101324.63;;;5.72;86.72
64739;BME280;51175;51.186;0.276;2023-12-14T01:54:42;101322.22;;;5.70;86.66
64739;BME280;51175;51.186;0.276;2023-12-14T01:55:12;101321.41;;;5.70;86.59
64739;BME280;51175;51.186;0.276;2023-12-14T01:55:43;101319.78;;;5.69;86.57
64739;BME280;51175;51.186;0.276;2023-12-14T01:56:15;101319.22;;;5.67;86.70
64739;BME280;51175;51.186;0.276;2023-12-14T01:56:46;101321.03;;;5.66;86.79
64739;BME280;51175;51.186;0.276;2023-12-14T01:57:18;101326.25;;;5.66;86.68
64739;BME280;51175;51.186;0.276;2023-12-14T01:57:48;101323.84;;;5.65;86.64
64739;BME280;51175;51.186;0.276;2023-12-14T01:58:22;101326.66;;;5.63;86.83
64739;BME280;51175;51.186;0.276;2023-12-14T01:58:53;101324.06;;;5.63;86.73
64739;BME280;51175;51.186;0.276;2023-12-14T01:59:23;101324.06;;;5.63;86.83
64739;BME280;51175;51.186;0.276;2023-12-14T01:59:55;101322.41;;;5.62;86.82
64739;BME280;51175;51.186;0.276;2023-12-14T02:01:22;101334.13;;;5.59;87.03
64739;BME280;51175;51.186;0.276;2023-12-14T02:01:57;101329.69;;;5.60;86.97
64739;BME280;51175;51.186;0.276;2023-12-14T02:02:28;101325.25;;;5.61;86.95
64739;BME280;51175;51.186;0.276;2023-12-14T02:02:59;101328.69;;;5.61;87.09
64739;BME280;51175;51.186;0.276;2023-12-14T02:03:30;101331.31;;;5.61;87.20
64739;BME280;51175;51.186;0.276;2023-12-14T02:04:03;101331.72;;;5.58;87.23
64739;BME280;51175;51.186;0.276;2023-12-14T02:04:34;101326.47;;;5.58;87.46
64739;BME280;51175;51.186;0.276;2023-12-14T02:05:16;101328.47;;;5.56;87.23
64739;BME280;51175;51.186;0.276;2023-12-14T02:05:46;101332.53;;;5.58;87.46
64739;BME280;51175;51.186;0.276;2023-12-14T02:06:17;101335.16;;;5.58;87.36
64739;BME280;51175;51.186;0.276;2023-12-14T02:06:47;101329.09;;;5.58;87.32
64739;BME280;51175;51.186;0.276;2023-12-14T02:07:18;101334.94;;;5.60;87.37
64739;BME280;51175;51.186;0.276;2023-12-14T02:07:48;101327.88;;;5.61;87.56
64739;BME280;51175;51.186;0.276;2023-12-14T02:08:27;101336.75;;;5.59;87.51
64739;BME280;51175;51.186;0.276;2023-12-14T02:08:58;101338.97;;;5.63;87.65
64739;BME280;51175;51.186;0.276;2023-12-14T02:09:29;101332.69;;;5.64;87.58
64739;BME280;51175;51.186;0.276;2023-12-14T02:10:01;101331.91;;;5.63;87.54
64739;BME280;51175;51.186;0.276;2023-12-14T02:10:31;101336.13;;;5.64;87.67
64739;BME280;51175;51.186;0.276;2023-12-14T02:11:02;101332.50;;;5.65;87.59
64739;BME280;51175;51.186;0.276;2023-12-14T02:11:32;101331.50;;;5.66;87.65
64739;BME280;51175;51.186;0.276;2023-12-14T02:12:04;101333.09;;;5.67;87.64
64739;BME280;51175;51.186;0.276;2023-12-14T02:12:35;101333.09;;;5.67;87.73
64739;BME280;51175;51.186;0.276;2023-12-14T02:13:05;101335.72;;;5.67;87.78
64739;BME280;51175;51.186;0.276;2023-12-14T02:13:36;101344.41;;;5.68;87.78
64739;BME280;51175;51.186;0.276;2023-12-14T02:14:12;101342.81;;;5.67;87.57
64739;BME280;51175;51.186;0.276;2023-12-14T02:14:43;101340.97;;;5.67;87.58
64739;BME280;51175;51.186;0.276;2023-12-14T02:15:14;101343.59;;;5.67;87.48
64739;BME280;51175;51.186;0.276;2023-12-14T02:15:45;101343.59;;;5.67;87.47
64739;BME280;51175;51.186;0.276;2023-12-14T02:16:19;101343.38;;;5.69;87.58
64739;BME280;51175;51.186;0.276;2023-12-14T02:16:50;101345.00;;;5.70;87.41
64739;BME280;51175;51.186;0.276;2023-12-14T02:17:20;101340.75;;;5.69;87.46
64739;BME280;51175;51.186;0.276;2023-12-14T02:17:51;101338.97;;;5.69;87.35
64739;BME280;51175;51.186;0.276;2023-12-14T02:18:21;101342.59;;;5.68;87.41
64739;BME280;51175;51.186;0.276;2023-12-14T02:18:52;101340.56;;;5.70;87.23
64739;BME280;51175;51.186;0.276;2023-12-14T02:19:23;101339.78;;;5.70;87.28
64739;BME280;51175;51.186;0.276;2023-12-14T02:19:53;101335.31;;;5.70;87.34
64739;BME280;51175;51.186;0.276;2023-12-14T02:20:26;101332.69;;;5.70;87.33
64739;BME280;51175;51.186;0.276;2023-12-14T02:20:56;101337.16;;;5.70;87.21
64739;BME280;51175;51.186;0.276;2023-12-14T02:21:28;101333.72;;;5.69;87.07
64739;BME280;51175;51.186;0.276;2023-12-14T02:21:58;101334.53;;;5.70;87.26
64739;BME280;51175;51.186;0.276;2023-12-14T02:22:35;101329.69;;;5.67;87.05
64739;BME280;51175;51.186;0.276;2023-12-14T02:23:06;101332.91;;;5.69;86.85
64739;BME280;51175;51.186;0.276;2023-12-14T02:23:46;101335.94;;;5.66;87.05
64739;BME280;51175;51.186;0.276;2023-12-14T02:24:17;101340.19;;;5.67;86.95
64739;BME280;51175;51.186;0.276;2023-12-14T02:24:47;101338.56;;;5.66;86.76
64739;BME280;51175;51.186;0.276;2023-12-14T02:25:18;101336.94;;;5.65;86.98
64739;BME280;51175;51.186;0.276;2023-12-14T02:25:49;101342.19;;;5.65;86.75
64739;BME280;51175;51.186;0.276;2023-12-14T02:26:21;101342.19;;;5.65;86.75
64739;BME280;51175;51.186;0.276;2023-12-14T02:26:51;101341.38;;;5.64;86.73
64739;BME280;51175;51.186;0.276;2023-12-14T02:27:23;101343.38;;;5.62;86.67
64739;BME280;51175;51.186;0.276;2023-12-14T02:27:53;101345.03;;;5.63;86.74
64739;BME280;51175;51.186;0.276;2023-12-14T02:28:24;101342.41;;;5.63;86.75
64739;BME280;51175;51.186;0.276;2023-12-14T02:28:54;101339.78;;;5.63;86.70
64739;BME280;51175;51.186;0.276;2023-12-14T02:29:26;101344.81;;;5.65;86.61
64739;BME280;51175;51.186;0.276;2023-12-14T02:29:56;101345.81;;;5.64;86.65
64739;BME280;51175;51.186;0.276;2023-12-14T02:30:28;101351.84;;;5.64;86.72
64739;BME280;51175;51.186;0.276;2023-12-14T02:30:59;101347.44;;;5.65;86.74
64739;BME280;51175;51.186;0.276;2023-12-14T02:31:29;101346.81;;;5.63;86.69
64739;BME280;51175;51.186;0.276;2023-12-14T02:32:00;101351.03;;;5.64;86.69
64739;BME280;51175;51.186;0.276;2023-12-14T02:32:31;101349.44;;;5.63;86.75
64739;BME280;51175;51.186;0.276;2023-12-14T02:33:01;101347.63;;;5.63;86.59
64739;BME280;51175;51.186;0.276;2023-12-14T02:33:32;101349.44;;;5.63;86.60
64739;BME280;51175;51.186;0.276;2023-12-14T02:34:02;101353.66;;;5.64;86.71
64739;BME280;51175;51.186;0.276;2023-12-14T02:34:33;101350.25;;;5.63;86.58
64739;BME280;51175;51.186;0.276;2023-12-14T02:35:04;101350.25;;;5.63;86.53
64739;BME280;51175;51.186;0.276;2023-12-14T02:35:36;101358.13;;;5.63;86.47
64739;BME280;51175;51.186;0.276;2023-12-14T02:36:07;101361.53;;;5.64;86.51
64739;BME280;51175;51.186;0.276;2023-12-14T02:36:37;101358.31;;;5.62;86.57
64739;BME280;51175;51.186;0.276;2023-12-14T02:37:08;101367.19;;;5.61;86.55
64739;BME280;51175;51.186;0.276;2023-12-14T02:37:39;101376.06;;;5.59;86.54
64739;BME280;51175;51.186;0.276;2023-12-14T02:38:12;101372.03;;;5.57;86.68
64739;BME280;51175;51.186;0.276;2023-12-14T02:38:42;101367.59;;;5.57;86.50
64739;BME280;51175;51.186;0.276;2023-12-14T02:39:13;101366.81;;;5.57;86.56
64739;BME280;51175;51.186;0.276;2023-12-14T02:39:44;101372.81;;;5.57;86.79
64739;BME280;51175;51.186;0.276;2023-12-14T02:40:17;101375.44;;;5.57;86.58
64739;BME280;51175;51.186;0.276;2023-12-14T02:40:48;101372.03;;;5.57;86.60
64739;BME280;51175;51.186;0.276;2023-12-14T02:41:21;101371.03;;;5.58;86.65
64739;BME280;51175;51.186;0.276;2023-12-14T02:41:51;101369.22;;;5.58;86.75
64739;BME280;51175;51.186;0.276;2023-12-14T02:42:22;101371.63;;;5.60;86.47
64739;BME280;51175;51.186;0.276;2023-12-14T02:42:53;101371.63;;;5.60;86.58
64739;BME280;51175;51.186;0.276;2023-12-14T02:43:23;101371.63;;;5.60;86.69
64739;BME280;51175;51.186;0.276;2023-12-14T02:43:53;101374.47;;;5.58;86.66
64739;BME280;51175;51.186;0.276;2023-12-14T02:44:24;101388.16;;;5.61;86.71
64739;BME280;51175;51.186;0.276;2023-12-14T02:44:56;101378.88;;;5.58;86.60
64739;BME280;51175;51.186;0.276;2023-12-14T02:45:28;101376.25;;;5.58;86.74
64739;BME280;51175;51.186;0.276;2023-12-14T02:45:59;101385.94;;;5.57;86.55
64739;BME280;51175;51.186;0.276;2023-12-14T02:46:32;101380.09;;;5.55;86.69
64739;BME280;51175;51.186;0.276;2023-12-14T02:47:02;101374.06;;;5.55;86.88
64739;BME280;51175;51.186;0.276;2023-12-14T02:47:34;101381.31;;;5.53;86.67
64739;BME280;51175;51.186;0.276;2023-12-14T02:48:04;101380.50;;;5.52;86.60
64739;BME280;51175;51.186;0.276;2023-12-14T02:48:36;101377.28;;;5.50;86.63
64739;BME280;51175;51.186;0.276;2023-12-14T02:49:07;101385.16;;;5.50;86.73